createdAt,value
2019-04-23T00:02:25.203Z,12.20
2019-04-23T00:04:53.051Z,12.20
2019-04-23T00:07:51.241Z,12.20
2019-04-23T00:10:09.620Z,12.10
2019-04-23T00:12:44.078Z,12.10
2019-04-23T00:15:10.534Z,12.10
2019-04-23T00:17:48.843Z,12.10
2019-04-23T00:20:42.379Z,12.10
2019-04-23T00:23:11.072Z,12.00
2019-04-23T00:26:08.080Z,12.00
2019-04-23T00:28:45.616Z,12.00
2019-04-23T00:31:20.961Z,12.00
2019-04-23T00:33:55.598Z,11.90
2019-04-23T00:36:27.256Z,11.90
2019-04-23T00:38:50.057Z,11.90
2019-04-23T00:41:24.993Z,11.90
2019-04-23T00:44:15.008Z,11.90
2019-04-23T00:49:04.994Z,11.90
2019-04-23T00:51:36.400Z,11.80
2019-04-23T00:54:06.423Z,11.80
2019-04-23T00:59:11.854Z,11.70
2019-04-23T01:01:59.357Z,11.80
2019-04-23T01:04:12.057Z,11.70
2019-04-23T01:06:46.037Z,11.70
2019-04-23T01:09:15.527Z,11.70
2019-04-23T01:11:52.282Z,11.70
2019-04-23T01:14:23.016Z,11.60
2019-04-23T01:16:55.186Z,11.60
2019-04-23T01:19:33.188Z,11.60
2019-04-23T01:21:43.702Z,11.60
2019-04-23T01:24:37.188Z,11.60
2019-04-23T01:27:49.193Z,11.60
2019-04-23T01:30:10.109Z,11.60
2019-04-23T01:32:38.163Z,11.60
2019-04-23T01:35:17.235Z,11.60
2019-04-23T01:37:52.363Z,11.60
2019-04-23T01:40:19.104Z,11.50
2019-04-23T01:43:14.365Z,11.50
2019-04-23T01:45:35.912Z,11.50
2019-04-23T01:48:13.128Z,11.50
2019-04-23T01:50:55.044Z,11.50
2019-04-23T01:55:52.750Z,11.50
2019-04-23T02:00:57.925Z,11.50
2019-04-23T02:03:48.542Z,11.50
2019-04-23T02:06:10.195Z,11.40
2019-04-23T02:08:45.271Z,11.50
2019-04-23T02:11:16.495Z,11.50
2019-04-23T02:13:55.339Z,11.40
2019-04-23T02:16:26.150Z,11.40
2019-04-23T02:19:07.705Z,11.50
2019-04-23T02:21:33.440Z,11.40
2019-04-23T02:23:57.242Z,11.40
2019-04-23T02:26:34.310Z,11.40
2019-04-23T02:34:35.815Z,11.40
2019-04-23T02:39:21.869Z,11.30
2019-04-23T02:44:24.146Z,11.30
2019-04-23T02:47:00.102Z,11.30
2019-04-23T02:49:31.487Z,11.30
2019-04-23T02:52:01.812Z,11.20
2019-04-23T02:56:55.284Z,11.30
2019-04-23T03:07:37.643Z,11.30
2019-04-23T03:12:31.836Z,11.20
2019-04-23T03:15:14.896Z,11.30
2019-04-23T03:18:11.920Z,11.20
2019-04-23T03:23:27.440Z,11.20
2019-04-23T03:26:15.614Z,11.20
2019-04-23T03:28:37.769Z,11.20
2019-04-23T03:41:32.400Z,11.20
2019-04-23T03:52:37.039Z,11.00
2019-04-23T03:57:30.726Z,11.00
2019-04-23T04:05:10.689Z,11.00
2019-04-23T04:07:55.777Z,10.90
2019-04-23T04:12:49.288Z,11.00
2019-04-23T04:15:43.273Z,10.90
2019-04-23T04:18:28.520Z,11.00
2019-04-23T04:25:42.807Z,11.00
2019-04-23T04:28:17.763Z,11.00
2019-04-23T04:30:45.389Z,11.00
2019-04-23T04:36:10.684Z,11.00
2019-04-23T04:53:50.503Z,11.10
2019-04-23T04:59:05.291Z,11.20
2019-04-23T05:03:52.856Z,11.30
2019-04-23T05:06:46.476Z,11.30
2019-04-23T05:09:11.421Z,11.40
2019-04-23T05:11:54.286Z,11.40
2019-04-23T05:14:13.353Z,11.40
2019-04-23T05:16:47.014Z,11.50
2019-04-23T05:19:29.587Z,11.50
2019-04-23T05:21:53.988Z,11.60
2019-04-23T05:24:23.464Z,11.70
2019-04-23T05:26:58.525Z,12.10
2019-04-23T05:31:50.851Z,13.60
2019-04-23T05:34:40.222Z,14.10
2019-04-23T05:37:45.260Z,14.20
2019-04-23T05:39:54.552Z,14.50
2019-04-23T05:42:49.809Z,14.80
2019-04-23T05:45:16.656Z,14.90
2019-04-23T05:48:06.732Z,15.50
2019-04-23T05:51:49.155Z,15.90
2019-04-23T05:54:27.687Z,15.90
2019-04-23T06:00:02.369Z,16.10
2019-04-23T06:03:17.956Z,15.90
2019-04-23T06:11:02.386Z,16.50
2019-04-23T06:13:44.578Z,17.20
2019-04-23T06:17:15.194Z,17.00
2019-04-23T06:19:55.096Z,17.40
2019-04-23T06:23:05.721Z,17.80
2019-04-23T06:28:50.777Z,17.40
2019-04-23T06:31:30.888Z,17.40
2019-04-23T06:38:28.106Z,17.60
2019-04-23T06:41:16.982Z,17.10
2019-04-23T06:44:37.873Z,17.00
2019-04-23T06:47:56.478Z,16.80
2019-04-23T06:52:10.453Z,16.80
2019-04-23T07:42:29.766Z,17.40
2019-04-23T07:48:30.498Z,17.50
2019-04-23T07:50:55.630Z,17.90
2019-04-23T07:53:40.107Z,17.80
2019-04-23T07:57:02.882Z,18.00
2019-04-23T07:59:48.599Z,17.50
2019-04-23T08:02:15.969Z,17.40
2019-04-23T08:07:40.242Z,17.40
2019-04-23T08:10:31.738Z,17.10
2019-04-23T08:13:10.008Z,17.10
2019-04-23T08:18:13.661Z,17.10
2019-04-23T08:23:26.048Z,17.10
2019-04-23T08:26:23.939Z,17.20
2019-04-23T08:29:00.967Z,17.50
2019-04-23T08:31:15.264Z,17.70
2019-04-23T08:33:52.999Z,17.30
2019-04-23T08:36:23.731Z,17.20
2019-04-23T08:38:50.767Z,17.10
2019-04-23T08:41:27.023Z,17.20
2019-04-23T08:43:57.187Z,17.30
2019-04-23T08:49:36.146Z,17.50
2019-04-23T08:52:07.156Z,17.60
2019-04-23T08:57:24.024Z,18.00
2019-04-23T09:00:04.346Z,17.70
2019-04-23T09:02:40.325Z,17.80
2019-04-23T09:10:40.965Z,17.40
2019-04-23T09:15:49.934Z,17.80
2019-04-23T09:18:16.675Z,18.00
2019-04-23T09:20:42.266Z,18.10
2019-04-23T09:23:30.877Z,18.20
2019-04-23T09:25:54.350Z,18.30
2019-04-23T09:31:04.160Z,18.10
2019-04-23T09:33:39.404Z,18.20
2019-04-23T09:36:30.714Z,18.50
2019-04-23T09:39:30.422Z,18.40
2019-04-23T09:42:16.088Z,18.60
2019-04-23T09:48:01.559Z,18.40
2019-04-23T09:56:01.133Z,18.80
2019-04-23T09:58:16.741Z,18.90
2019-04-23T10:01:17.335Z,18.90
2019-04-23T10:03:25.504Z,19.10
2019-04-23T10:05:53.444Z,19.10
2019-04-23T10:08:21.159Z,19.00
2019-04-23T10:10:43.145Z,19.10
2019-04-23T10:13:11.619Z,19.10
2019-04-23T10:15:45.714Z,19.40
2019-04-23T10:18:12.028Z,19.60
2019-04-23T10:20:40.412Z,19.50
2019-04-23T10:23:08.518Z,19.60
2019-04-23T10:25:36.342Z,19.40
2019-04-23T10:28:10.910Z,19.20
2019-04-23T10:30:44.986Z,19.30
2019-04-23T10:33:13.959Z,19.50
2019-04-23T10:35:51.510Z,19.40
2019-04-23T10:38:20.010Z,19.30
2019-04-23T10:40:50.222Z,19.60
2019-04-23T10:43:20.587Z,19.70
2019-04-23T10:46:32.561Z,20.00
2019-04-23T10:52:15.432Z,20.30
2019-04-23T10:54:43.385Z,20.00
2019-04-23T10:57:15.908Z,19.90
2019-04-23T11:12:50.765Z,19.90
2019-04-23T11:15:34.791Z,20.00
2019-04-23T11:20:35.305Z,20.10
2019-04-23T11:22:56.770Z,20.00
2019-04-23T11:30:41.619Z,20.40
2019-04-23T11:33:14.716Z,20.30
2019-04-23T11:40:42.120Z,20.70
2019-04-23T11:43:29.051Z,20.90
2019-04-23T11:46:25.135Z,20.70
2019-04-23T11:48:51.966Z,20.80
2019-04-23T11:53:55.878Z,21.00
2019-04-23T11:57:04.745Z,21.20
2019-04-23T11:59:29.188Z,21.10
2019-04-23T12:01:52.747Z,21.10
2019-04-23T12:04:49.906Z,21.20
2019-04-23T12:07:32.742Z,21.10
2019-04-23T12:10:29.248Z,21.60
2019-04-23T12:12:55.004Z,21.60
2019-04-23T12:18:58.139Z,21.20
2019-04-23T12:21:29.912Z,21.30
2019-04-23T12:28:57.731Z,21.30
2019-04-23T12:31:34.466Z,21.10
2019-04-23T12:39:11.219Z,21.80
2019-04-23T12:41:51.075Z,21.50
2019-04-23T12:44:17.836Z,21.50
2019-04-23T12:46:55.966Z,21.60
2019-04-23T12:49:44.175Z,21.70
2019-04-23T12:51:55.978Z,21.60
2019-04-23T12:54:51.623Z,21.40
2019-04-23T12:57:14.593Z,21.30
2019-04-23T12:59:44.055Z,21.20
2019-04-23T13:02:15.988Z,21.00
2019-04-23T13:07:29.293Z,21.00
2019-04-23T13:09:58.614Z,21.30
2019-04-23T13:15:12.855Z,21.50
2019-04-23T13:22:49.464Z,21.70
2019-04-23T13:25:36.835Z,21.40
2019-04-23T13:28:06.525Z,21.40
2019-04-23T13:33:20.938Z,21.40
2019-04-23T13:38:33.499Z,21.50
2019-04-23T13:41:01.138Z,21.30
2019-04-23T13:43:40.456Z,21.30
2019-04-23T13:46:06.906Z,21.40
2019-04-23T13:48:20.144Z,21.30
2019-04-23T13:53:50.110Z,21.90
2019-04-23T13:56:03.711Z,21.70
2019-04-23T13:58:59.970Z,21.60
2019-04-23T14:04:14.260Z,21.60
2019-04-23T14:08:59.859Z,21.40
2019-04-23T14:16:48.451Z,21.50
2019-04-23T14:19:04.944Z,21.10
2019-04-23T14:21:37.626Z,21.40
2019-04-23T14:24:18.054Z,21.40
2019-04-23T14:29:04.423Z,21.50
2019-04-23T14:31:51.243Z,21.40
2019-04-23T14:34:31.178Z,21.60
2019-04-23T14:36:55.746Z,21.40
2019-04-23T14:39:43.744Z,21.30
2019-04-23T14:42:09.265Z,21.20
2019-04-23T14:44:30.938Z,21.30
2019-04-23T14:47:18.368Z,21.60
2019-04-23T14:50:12.615Z,21.50
2019-04-23T14:52:21.363Z,21.20
2019-04-23T14:55:36.216Z,21.10
2019-04-23T14:58:00.866Z,21.30
2019-04-23T15:00:25.424Z,21.40
2019-04-23T15:03:15.487Z,21.30
2019-04-23T15:05:52.755Z,21.30
2019-04-23T15:08:16.902Z,21.40
2019-04-23T15:13:23.054Z,21.40
2019-04-23T15:16:16.991Z,21.20
2019-04-23T15:19:06.871Z,21.00
2019-04-23T15:24:23.247Z,20.80
2019-04-23T15:29:33.669Z,20.90
2019-04-23T15:34:45.347Z,20.90
2019-04-23T15:38:02.186Z,21.00
2019-04-23T15:40:16.538Z,21.00
2019-04-23T15:42:45.291Z,20.90
2019-04-23T15:45:15.138Z,20.80
2019-04-23T15:47:54.039Z,20.90
2019-04-23T15:50:22.150Z,21.00
2019-04-23T15:55:22.522Z,20.80
2019-04-23T15:58:09.311Z,20.90
2019-04-23T16:00:30.754Z,20.90
2019-04-23T16:02:35.691Z,20.80
2019-04-23T16:05:09.417Z,20.60
2019-04-23T16:08:05.473Z,20.80
2019-04-23T16:10:56.489Z,20.90
2019-04-23T16:13:28.877Z,21.10
2019-04-23T16:16:06.265Z,20.90
2019-04-23T16:21:26.846Z,20.70
2019-04-23T16:23:42.408Z,20.60
2019-04-23T16:26:28.473Z,20.50
2019-04-23T16:32:20.461Z,20.00
2019-04-23T16:34:58.386Z,19.80
2019-04-23T16:37:29.159Z,19.90
2019-04-23T16:43:35.675Z,20.00
2019-04-23T16:46:33.694Z,19.70
2019-04-23T16:51:32.740Z,19.60
2019-04-23T16:54:10.395Z,19.50
2019-04-23T16:56:55.242Z,19.40
2019-04-23T17:01:55.095Z,19.40
2019-04-23T17:07:20.320Z,19.60
2019-04-23T17:12:38.364Z,19.60
2019-04-23T17:15:08.987Z,19.40
2019-04-23T17:17:43.394Z,19.20
2019-04-23T17:20:16.056Z,19.00
2019-04-23T17:22:59.906Z,19.00
2019-04-23T17:28:07.155Z,18.90
2019-04-23T17:36:34.902Z,18.60
2019-04-23T17:39:21.117Z,18.50
2019-04-23T17:45:30.827Z,18.50
2019-04-23T17:48:11.658Z,18.50
2019-04-23T17:51:11.831Z,18.50
2019-04-23T17:56:27.133Z,18.20
2019-04-23T17:59:13.298Z,18.20
2019-04-23T18:01:59.214Z,18.10
2019-04-23T18:04:33.278Z,18.00
2019-04-23T18:07:10.940Z,17.90
2019-04-23T18:09:50.902Z,17.90
2019-04-23T18:12:31.056Z,17.80
2019-04-23T18:15:04.735Z,17.80
2019-04-23T18:17:41.066Z,17.80
2019-04-23T18:20:39.315Z,17.70
2019-04-23T18:23:06.662Z,17.60
2019-04-23T18:25:45.701Z,17.50
2019-04-23T18:28:29.706Z,17.40
2019-04-23T18:31:33.245Z,17.40
2019-04-23T18:34:08.690Z,17.30
2019-04-23T18:36:48.193Z,17.30
2019-04-23T18:39:25.112Z,17.20
2019-04-23T18:42:00.016Z,17.20
2019-04-23T18:44:36.438Z,17.10
2019-04-23T18:47:07.068Z,17.10
2019-04-23T18:49:41.383Z,17.10
2019-04-23T18:52:20.874Z,17.10
2019-04-23T18:54:53.977Z,17.00
2019-04-23T18:57:12.671Z,16.90
2019-04-23T19:00:03.010Z,16.80
2019-04-23T19:02:56.607Z,16.70
2019-04-23T19:11:02.038Z,16.60
2019-04-23T19:13:40.118Z,16.60
2019-04-23T19:16:13.096Z,16.70
2019-04-23T19:24:53.461Z,16.60
2019-04-23T19:27:49.815Z,16.70
2019-04-23T19:30:38.862Z,16.60
2019-04-23T19:33:22.433Z,16.50
2019-04-23T19:40:51.740Z,16.40
2019-04-23T19:43:19.107Z,16.40
2019-04-23T19:46:11.064Z,16.30
2019-04-23T19:48:33.540Z,16.30
2019-04-23T19:51:02.689Z,16.30
2019-04-23T19:53:45.171Z,16.20
2019-04-23T19:56:16.784Z,16.20
2019-04-23T19:58:44.922Z,16.20
2019-04-23T20:03:49.506Z,16.10
2019-04-23T20:11:42.558Z,15.90
2019-04-23T20:14:25.292Z,16.00
2019-04-23T20:17:00.657Z,15.90
2019-04-23T20:19:23.882Z,15.90
2019-04-23T20:24:39.676Z,15.80
2019-04-23T20:27:42.384Z,15.80
2019-04-23T20:36:32.565Z,15.60
2019-04-23T20:40:08.611Z,15.60
2019-04-23T20:42:36.697Z,15.50
2019-04-23T20:48:14.177Z,15.40
2019-04-23T20:53:28.232Z,15.30
2019-04-23T20:58:48.180Z,15.20
2019-04-23T21:01:22.246Z,15.20
2019-04-23T21:03:56.652Z,15.20
2019-04-23T21:06:45.910Z,15.10
2019-04-23T21:09:28.200Z,15.10
2019-04-23T21:12:04.221Z,15.00
2019-04-23T21:14:50.857Z,15.00
2019-04-23T21:17:07.431Z,15.00
2019-04-23T21:19:50.545Z,15.00
2019-04-23T21:23:09.434Z,14.90
2019-04-23T21:25:06.088Z,14.80
2019-04-23T21:27:57.240Z,14.80
2019-04-23T21:30:43.636Z,14.80
2019-04-23T21:33:11.915Z,14.80
2019-04-23T21:36:10.724Z,14.70
2019-04-23T21:38:46.384Z,14.60
2019-04-23T21:41:32.960Z,14.60
2019-04-23T21:44:08.573Z,14.60
2019-04-23T21:49:18.292Z,14.40
2019-04-23T21:51:46.092Z,14.40
2019-04-23T21:56:48.231Z,14.20
2019-04-23T21:59:29.626Z,14.20
2019-04-23T22:01:57.415Z,14.20
2019-04-23T22:06:54.060Z,14.10
2019-04-23T22:09:31.447Z,14.00
2019-04-23T22:12:05.577Z,14.00
2019-04-23T22:14:33.851Z,13.90
2019-04-23T22:19:38.217Z,13.80
2019-04-23T22:22:18.374Z,13.80
2019-04-23T22:24:32.183Z,13.80
2019-04-23T22:27:35.466Z,13.80
2019-04-23T22:32:20.154Z,13.70
2019-04-23T22:34:56.007Z,13.70
2019-04-23T22:37:23.637Z,13.60
2019-04-23T22:39:58.996Z,13.60
2019-04-23T22:42:41.230Z,13.60
2019-04-23T22:45:05.860Z,13.50
2019-04-23T22:47:34.551Z,13.50
2019-04-23T22:55:23.570Z,13.40
2019-04-23T22:58:05.197Z,13.30
2019-04-23T23:03:09.860Z,13.30
2019-04-23T23:05:56.264Z,13.30
2019-04-23T23:10:57.496Z,13.20
2019-04-23T23:13:35.752Z,13.20
2019-04-23T23:16:14.856Z,13.20
2019-04-23T23:18:49.435Z,13.10
2019-04-23T23:21:16.395Z,13.20
2019-04-23T23:23:39.385Z,13.20
2019-04-23T23:26:09.366Z,13.10
2019-04-23T23:28:41.208Z,13.10
2019-04-23T23:36:14.171Z,13.20
2019-04-23T23:38:50.601Z,13.20
2019-04-23T23:43:54.425Z,13.30
2019-04-23T23:48:48.388Z,13.30
2019-04-23T23:51:21.591Z,13.30
2019-04-23T23:56:20.771Z,13.30
2019-04-23T23:59:04.242Z,13.30
